Time;durP1;ratioP1;P1;durP2;ratioP2;P2;SDS_P1;SDS_P2;PMS_P1;PMS_P2;Temp;Humidity;BMP_temperature;BMP_pressure;BME280_temperature;BME280_humidity;BME280_pressure;Samples;Min_cycle;Max_cycle;Signal;HPM_P1;HPM_P2
2023/03/29 00:01:50;;;;;;;1.23;1.23;;;11.20;56.80;;;;;;5095811;28;20024;-76
2023/03/29 00:04:18;;;;;;;1.10;1.10;;;11.20;56.80;;;;;;5097252;28;20117;-76
2023/03/29 00:06:46;;;;;;;1.05;1.05;;;11.20;56.80;;;;;;5097248;28;20028;-76
2023/03/29 00:09:13;;;;;;;1.00;1.00;;;11.20;56.80;;;;;;5095815;28;20532;-76
2023/03/29 00:11:39;;;;;;;1.30;1.30;;;11.20;56.80;;;;;;5097200;28;20028;-76
2023/03/29 00:14:05;;;;;;;1.10;1.10;;;11.20;56.80;;;;;;5095808;28;20070;-76
2023/03/29 00:16:30;;;;;;;1.20;1.20;;;11.20;56.80;;;;;;5096918;28;20032;-76
2023/03/29 00:18:57;;;;;;;1.20;1.20;;;11.20;56.80;;;;;;5095266;28;20032;-76
2023/03/29 00:21:22;;;;;;;1.27;1.27;;;11.20;56.80;;;;;;5096958;28;20042;-76
2023/03/29 00:23:48;;;;;;;1.27;1.17;;;11.20;56.80;;;;;;5096530;28;20477;-77
2023/03/29 00:26:13;;;;;;;1.17;1.17;;;11.20;56.80;;;;;;5096897;28;20112;-76
2023/03/29 00:28:39;;;;;;;1.23;1.15;;;11.20;56.80;;;;;;5097131;28;20107;-76
2023/03/29 00:31:11;;;;;;;1.20;1.20;;;11.20;56.80;;;;;;5096831;28;20415;-76
2023/03/29 00:33:36;;;;;;;1.20;1.20;;;11.20;56.80;;;;;;5096952;28;20027;-76
2023/03/29 00:36:03;;;;;;;1.20;1.20;;;11.20;56.80;;;;;;5096556;28;20112;-76
2023/03/29 00:38:29;;;;;;;1.20;1.20;;;11.20;56.80;;;;;;5096446;28;20036;-76
2023/03/29 00:40:55;;;;;;;1.10;1.10;;;11.20;56.80;;;;;;5096507;28;20381;-76
2023/03/29 00:43:21;;;;;;;1.20;1.20;;;11.10;56.80;;;;;;5096269;28;20036;-76
2023/03/29 00:45:46;;;;;;;1.30;1.20;;;11.20;56.80;;;;;;5096451;28;20024;-76
2023/03/29 00:48:16;;;;;;;1.02;1.02;;;11.10;56.80;;;;;;5096372;28;20028;-76
2023/03/29 00:51:02;;;;;;;1.40;1.30;;;11.10;56.80;;;;;;5078873;28;20032;-76
2023/03/29 00:53:41;;;;;;;1.20;1.20;;;11.10;56.70;;;;;;5096216;28;20078;-76
2023/03/29 00:56:12;;;;;;;1.10;1.10;;;11.10;56.70;;;;;;5096049;28;20032;-76
2023/03/29 00:59:00;;;;;;;1.20;1.20;;;11.10;56.80;;;;;;5078074;28;20027;-76
2023/03/29 01:01:40;;;;;;;1.42;1.38;;;11.10;56.70;;;;;;5096172;28;20488;-76
2023/03/29 01:04:28;;;;;;;1.20;1.20;;;11.10;56.80;;;;;;5096197;28;20101;-76
2023/03/29 01:07:00;;;;;;;1.25;1.25;;;11.10;56.80;;;;;;5095790;28;20481;-76
2023/03/29 01:09:29;;;;;;;1.30;1.30;;;11.10;56.80;;;;;;5096193;28;20051;-76
2023/03/29 01:11:57;;;;;;;1.20;1.20;;;11.10;56.80;;;;;;5095956;28;20081;-77
2023/03/29 01:14:55;;;;;;;1.23;1.23;;;11.10;56.80;;;;;;5095762;28;20099;-76
2023/03/29 01:17:24;;;;;;;1.10;1.10;;;11.10;56.60;;;;;;5079316;28;20042;-76
2023/03/29 01:20:01;;;;;;;1.10;1.10;;;11.10;56.80;;;;;;5077306;28;20028;-76
2023/03/29 01:22:37;;;;;;;1.20;1.20;;;11.10;56.80;;;;;;5095680;28;20036;-76
2023/03/29 01:25:29;;;;;;;1.00;1.00;;;11.10;56.80;;;;;;5095754;28;20370;-76
2023/03/29 01:28:16;;;;;;;1.13;1.13;;;11.10;56.70;;;;;;5077786;28;20462;-76
2023/03/29 01:30:50;;;;;;;1.10;1.10;;;11.10;56.70;;;;;;5095848;28;20023;-76
2023/03/29 01:33:24;;;;;;;1.20;1.20;;;11.10;56.80;;;;;;5095860;28;20028;-76
2023/03/29 01:36:00;;;;;;;1.27;1.27;;;11.10;56.80;;;;;;5095372;28;20040;-76
2023/03/29 01:38:33;;;;;;;1.35;1.30;;;11.00;56.70;;;;;;5077565;28;20031;-75
2023/03/29 01:41:01;;;;;;;1.20;1.20;;;11.10;56.80;;;;;;5077517;28;20103;-75
2023/03/29 01:43:34;;;;;;;1.20;1.20;;;11.10;56.80;;;;;;5077064;28;20036;-75
2023/03/29 01:46:09;;;;;;;1.30;1.30;;;11.10;56.80;;;;;;5095399;28;20510;-76
2023/03/29 01:48:49;;;;;;;1.30;1.30;;;11.10;56.80;;;;;;5095288;28;20024;-76
2023/03/29 01:51:18;;;;;;;1.20;1.20;;;11.10;56.80;;;;;;5077115;28;20056;-76
2023/03/29 01:54:10;;;;;;;1.20;1.20;;;11.00;56.80;;;;;;5094546;28;20024;-76
2023/03/29 01:56:40;;;;;;;1.20;1.20;;;11.00;56.70;;;;;;5095300;28;20054;-76
2023/03/29 01:59:11;;;;;;;1.23;1.23;;;11.00;56.80;;;;;;5094725;28;20028;-76
2023/03/29 02:01:47;;;;;;;1.20;1.20;;;11.00;56.80;;;;;;5094932;28;20107;-76
2023/03/29 02:04:30;;;;;;;1.50;1.40;;;11.00;56.80;;;;;;5094988;28;20418;-76
2023/03/29 02:06:58;;;;;;;1.30;1.30;;;11.00;56.80;;;;;;5076911;28;20097;-76
2023/03/29 02:09:26;;;;;;;1.30;1.20;;;11.00;56.80;;;;;;5076637;28;20074;-76
2023/03/29 02:11:53;;;;;;;1.20;1.20;;;11.00;56.80;;;;;;5094769;28;20118;-75
2023/03/29 02:14:18;;;;;;;1.20;1.20;;;11.00;56.80;;;;;;5094716;28;20030;-76
2023/03/29 02:16:45;;;;;;;1.30;1.30;;;11.00;56.80;;;;;;5076742;28;20102;-76
2023/03/29 02:19:12;;;;;;;1.10;1.10;;;11.00;56.80;;;;;;5094698;28;20020;-76
2023/03/29 02:21:54;;;;;;;1.30;1.30;;;11.00;56.80;;;;;;5094361;28;20065;-76
2023/03/29 02:24:23;;;;;;;1.73;1.63;;;11.00;56.80;;;;;;5094885;28;20055;-75
2023/03/29 02:26:49;;;;;;;1.13;1.13;;;11.00;56.80;;;;;;5094402;28;20020;-76
2023/03/29 02:29:15;;;;;;;1.50;1.40;;;11.00;56.80;;;;;;5094412;28;20031;-76
2023/03/29 02:31:52;;;;;;;1.30;1.30;;;11.00;56.80;;;;;;5094510;28;20020;-76
2023/03/29 02:34:27;;;;;;;1.40;1.40;;;11.00;56.80;;;;;;5077326;28;20513;-76
2023/03/29 02:36:59;;;;;;;1.20;1.20;;;11.00;56.80;;;;;;5094838;28;20052;-76
2023/03/29 02:39:27;;;;;;;1.30;1.30;;;10.90;56.70;;;;;;5094138;28;20519;-76
2023/03/29 02:41:53;;;;;;;1.35;1.30;;;10.90;56.80;;;;;;5075769;28;20056;-77
2023/03/29 02:44:26;;;;;;;1.20;1.20;;;10.90;56.80;;;;;;5094300;28;20407;-76
2023/03/29 02:47:07;;;;;;;1.10;1.10;;;10.90;56.80;;;;;;5094449;28;20028;-76
2023/03/29 02:49:33;;;;;;;1.27;1.20;;;10.90;56.70;;;;;;5076381;28;20023;-76
2023/03/29 02:52:07;;;;;;;1.40;1.40;;;10.90;56.70;;;;;;5094345;28;20423;-76
2023/03/29 02:54:36;;;;;;;1.20;1.20;;;10.90;56.70;;;;;;5060041;28;20028;-76
2023/03/29 02:57:06;;;;;;;1.30;1.30;;;10.90;56.70;;;;;;5076039;28;20028;-76
2023/03/29 02:59:33;;;;;;;1.30;1.30;;;10.90;56.70;;;;;;5094059;28;20024;-76
2023/03/29 03:01:59;;;;;;;1.23;1.23;;;10.90;56.80;;;;;;5093897;28;20496;-75
2023/03/29 03:04:25;;;;;;;1.27;1.27;;;10.90;56.80;;;;;;5093759;28;20439;-76
2023/03/29 03:06:51;;;;;;;1.10;1.10;;;10.90;56.80;;;;;;5093380;28;20028;-76
2023/03/29 03:09:17;;;;;;;1.13;1.13;;;10.90;56.70;;;;;;5075796;28;20024;-76
2023/03/29 03:11:42;;;;;;;1.20;1.20;;;10.90;56.80;;;;;;5093671;28;20066;-75
2023/03/29 03:14:08;;;;;;;1.25;1.25;;;10.90;56.80;;;;;;5093655;28;20024;-75
2023/03/29 03:16:35;;;;;;;1.30;1.30;;;10.90;56.80;;;;;;5075838;28;20454;-77
2023/03/29 03:19:00;;;;;;;1.27;1.27;;;10.90;56.80;;;;;;5094033;28;20028;-77
2023/03/29 03:21:27;;;;;;;1.20;1.20;;;10.90;56.80;;;;;;5093746;28;20029;-77
2023/03/29 03:23:54;;;;;;;1.10;1.10;;;10.90;56.70;;;;;;5093810;28;20032;-76
2023/03/29 03:26:21;;;;;;;1.20;1.20;;;10.90;56.80;;;;;;5075668;28;20024;-77
2023/03/29 03:28:47;;;;;;;1.25;1.25;;;10.80;56.70;;;;;;5076107;28;20059;-76
2023/03/29 03:31:13;;;;;;;1.20;1.20;;;10.80;56.70;;;;;;5093781;28;20051;-77
2023/03/29 03:33:39;;;;;;;1.20;1.20;;;10.80;56.70;;;;;;5075555;28;20032;-77
2023/03/29 03:36:10;;;;;;;1.40;1.30;;;10.80;56.70;;;;;;5093506;28;20056;-77
2023/03/29 03:38:36;;;;;;;1.10;1.10;;;10.80;56.70;;;;;;5075494;28;20024;-77
2023/03/29 03:41:02;;;;;;;1.20;1.20;;;10.80;56.70;;;;;;5093402;28;20068;-77
2023/03/29 03:43:30;;;;;;;1.20;1.20;;;10.80;56.70;;;;;;5093259;28;20044;-77
2023/03/29 03:45:56;;;;;;;1.27;1.27;;;10.80;56.70;;;;;;5075422;28;20453;-77
2023/03/29 03:48:23;;;;;;;1.17;1.17;;;10.80;56.60;;;;;;5093762;28;20021;-77
2023/03/29 03:50:54;;;;;;;1.10;1.10;;;10.80;56.70;;;;;;5075375;28;20084;-76
2023/03/29 03:53:20;;;;;;;1.33;1.33;;;10.80;56.70;;;;;;5093561;28;20099;-77
2023/03/29 03:55:50;;;;;;;1.30;1.30;;;10.80;56.70;;;;;;5065612;28;20082;-77
2023/03/29 03:58:16;;;;;;;1.48;1.38;;;10.80;56.70;;;;;;5081740;28;20467;-77
2023/03/29 04:00:43;;;;;;;1.25;1.20;;;10.80;56.60;;;;;;5064820;28;20070;-77
2023/03/29 04:03:09;;;;;;;1.20;1.20;;;10.80;56.60;;;;;;5083441;28;20067;-77
2023/03/29 04:05:39;;;;;;;1.20;1.20;;;10.80;56.60;;;;;;5080823;28;20415;-78
2023/03/29 04:08:05;;;;;;;1.60;1.50;;;10.80;56.60;;;;;;5072848;28;20044;-77
2023/03/29 04:10:33;;;;;;;1.20;1.20;;;10.80;56.60;;;;;;5073208;28;20382;-76
2023/03/29 04:13:03;;;;;;;1.10;1.10;;;10.80;56.60;;;;;;5073238;28;20058;-76
2023/03/29 04:15:30;;;;;;;1.30;1.30;;;10.80;56.60;;;;;;5073164;28;20056;-77
2023/03/29 04:17:56;;;;;;;1.58;1.45;;;10.80;56.60;;;;;;5075986;28;20117;-77
2023/03/29 04:20:23;;;;;;;1.30;1.30;;;10.80;56.60;;;;;;5042071;28;20052;-78
2023/03/29 04:22:50;;;;;;;1.30;1.30;;;10.80;56.60;;;;;;5076421;28;20032;-78
2023/03/29 04:25:16;;;;;;;1.25;1.25;;;10.80;56.60;;;;;;5076439;28;20122;-77
2023/03/29 04:27:43;;;;;;;1.48;1.38;;;10.80;56.60;;;;;;5058469;28;20024;-77
2023/03/29 04:30:10;;;;;;;1.48;1.48;;;10.80;56.60;;;;;;5056592;28;20028;-74
2023/03/29 04:32:36;;;;;;;1.10;1.10;;;10.80;56.60;;;;;;5074830;28;20063;-82
2023/03/29 04:35:03;;;;;;;1.20;1.20;;;10.80;56.60;;;;;;5057590;28;20060;-83
2023/03/29 04:37:30;;;;;;;1.10;1.10;;;10.80;56.60;;;;;;5077434;28;20061;-82
2023/03/29 04:39:59;;;;;;;1.17;1.17;;;10.80;56.60;;;;;;5091160;28;20027;-86
2023/03/29 04:42:27;;;;;;;1.30;1.30;;;10.70;56.50;;;;;;5100505;28;20519;-82
2023/03/29 04:44:53;;;;;;;1.30;1.30;;;10.80;56.60;;;;;;5103204;28;20024;-84
2023/03/29 04:47:20;;;;;;;1.52;1.42;;;10.70;56.50;;;;;;5103543;28;20089;-80
2023/03/29 04:49:46;;;;;;;1.55;1.50;;;10.70;56.50;;;;;;5069252;28;20050;-81
2023/03/29 04:52:13;;;;;;;1.38;1.38;;;10.70;56.50;;;;;;5099378;28;20063;-82
2023/03/29 04:54:39;;;;;;;1.45;1.45;;;10.80;56.50;;;;;;5091458;28;20367;-83
2023/03/29 04:57:06;;;;;;;1.35;1.25;;;10.80;56.50;;;;;;5105907;28;20037;-82
2023/03/29 04:59:31;;;;;;;1.42;1.38;;;10.80;56.50;;;;;;5086896;28;20078;-82
2023/03/29 05:01:58;;;;;;;1.20;1.20;;;10.80;56.50;;;;;;5103712;28;20056;-82
2023/03/29 05:04:24;;;;;;;1.30;1.30;;;10.80;56.50;;;;;;5085363;28;20024;-82
2023/03/29 05:06:50;;;;;;;1.20;1.20;;;10.80;56.50;;;;;;5105365;28;20031;-79
2023/03/29 05:09:16;;;;;;;1.40;1.30;;;10.80;56.50;;;;;;5102841;28;20109;-82
2023/03/29 05:11:42;;;;;;;1.27;1.27;;;10.80;56.40;;;;;;5090204;28;20028;-82
2023/03/29 05:14:08;;;;;;;1.20;1.20;;;10.80;57.00;;;;;;5114032;28;20378;-81
2023/03/29 05:16:34;;;;;;;1.20;1.10;;;10.80;56.40;;;;;;5091184;28;20024;-78
2023/03/29 05:19:00;;;;;;;1.20;1.20;;;10.70;56.40;;;;;;5078034;28;20378;-84
2023/03/29 05:21:27;;;;;;;1.40;1.30;;;10.80;56.40;;;;;;5084055;28;20027;-86
2023/03/29 05:23:53;;;;;;;1.30;1.30;;;10.80;56.40;;;;;;5114060;28;20054;-84
2023/03/29 05:26:21;;;;;;;1.30;1.30;;;10.80;56.40;;;;;;5113955;28;20062;-76
2023/03/29 05:28:47;;;;;;;1.20;1.20;;;10.80;56.30;;;;;;5091732;28;20509;-76
2023/03/29 05:31:13;;;;;;;1.20;1.20;;;10.80;56.40;;;;;;5107542;28;20102;-77
2023/03/29 05:33:39;;;;;;;1.42;1.40;;;10.80;56.30;;;;;;5103459;28;20099;-78
2023/03/29 05:36:08;;;;;;;1.48;1.38;;;10.80;56.30;;;;;;5085491;28;20058;-78
2023/03/29 05:38:34;;;;;;;1.20;1.20;;;10.80;56.40;;;;;;5106829;28;20011;-77
2023/03/29 05:41:00;;;;;;;1.48;1.40;;;10.80;56.30;;;;;;5102629;28;20373;-78
2023/03/29 05:43:26;;;;;;;1.30;1.30;;;10.80;56.30;;;;;;5102800;28;20031;-84
2023/03/29 05:45:53;;;;;;;1.27;1.27;;;10.80;56.30;;;;;;5081675;28;20466;-88
2023/03/29 05:48:24;;;;;;;1.30;1.30;;;10.80;56.30;;;;;;5111849;28;20031;-81
2023/03/29 05:50:52;;;;;;;1.10;1.10;;;10.80;56.20;;;;;;5085906;28;20028;-87
2023/03/29 05:53:19;;;;;;;1.35;1.27;;;10.80;56.30;;;;;;5090223;28;20031;-81
2023/03/29 05:55:46;;;;;;;1.40;1.38;;;10.80;56.30;;;;;;5095960;28;20447;-83
2023/03/29 05:58:12;;;;;;;1.30;1.30;;;10.80;56.20;;;;;;5104337;28;20027;-84
2023/03/29 06:00:39;;;;;;;1.42;1.40;;;10.80;56.20;;;;;;5101702;28;20047;-84
2023/03/29 06:03:06;;;;;;;1.20;1.20;;;10.80;56.20;;;;;;5099820;28;20060;-84
2023/03/29 06:05:33;;;;;;;1.20;1.20;;;10.80;56.20;;;;;;5076836;28;20039;-85
2023/03/29 06:08:02;;;;;;;1.25;1.25;;;10.80;56.20;;;;;;5080717;28;20468;-84
2023/03/29 06:10:28;;;;;;;1.23;1.23;;;10.80;56.20;;;;;;5102091;28;20025;-84
2023/03/29 06:12:54;;;;;;;1.30;1.30;;;10.80;56.10;;;;;;5102146;28;20027;-83
2023/03/29 06:15:20;;;;;;;1.50;1.50;;;10.80;56.10;;;;;;5095633;28;20032;-86
2023/03/29 06:17:46;;;;;;;1.20;1.20;;;10.80;56.10;;;;;;5081093;28;20023;-86
2023/03/29 06:20:12;;;;;;;1.30;1.30;;;10.80;56.10;;;;;;5093042;28;20466;-84
2023/03/29 06:22:38;;;;;;;1.30;1.30;;;10.80;56.10;;;;;;5073964;28;20028;-86
2023/03/29 06:25:05;;;;;;;1.20;1.20;;;10.80;56.10;;;;;;5092385;28;20028;-87
2023/03/29 06:27:32;;;;;;;1.13;1.10;;;10.80;56.10;;;;;;5074622;28;20024;-83
2023/03/29 06:29:58;;;;;;;1.27;1.27;;;10.80;56.00;;;;;;5074121;28;20085;-86
2023/03/29 06:32:24;;;;;;;1.50;1.40;;;10.90;56.10;;;;;;5111547;28;20027;-82
2023/03/29 06:34:54;;;;;;;1.30;1.30;;;10.80;56.00;;;;;;5104422;28;20028;-79
2023/03/29 06:37:22;;;;;;;1.30;1.30;;;10.80;56.00;;;;;;5083292;28;20048;-77
2023/03/29 06:39:52;;;;;;;1.20;1.20;;;10.80;55.90;;;;;;5079965;28;20173;-77
2023/03/29 06:42:21;;;;;;;1.40;1.40;;;10.80;55.90;;;;;;5073406;28;20125;-80
2023/03/29 06:44:51;;;;;;;1.30;1.30;;;10.90;56.00;;;;;;5065606;28;20031;-80
2023/03/29 06:47:17;;;;;;;1.20;1.20;;;10.80;55.90;;;;;;5054125;28;20021;-80
2023/03/29 06:49:43;;;;;;;1.40;1.40;;;10.80;55.80;;;;;;5055568;28;20031;-81
2023/03/29 06:52:09;;;;;;;1.20;1.20;;;10.90;55.90;;;;;;5055546;28;20109;-81
2023/03/29 06:54:35;;;;;;;1.20;1.20;;;10.90;55.80;;;;;;5073407;28;20655;-82
2023/03/29 06:57:02;;;;;;;1.23;1.23;;;10.90;55.80;;;;;;5073344;28;20103;-83
2023/03/29 06:59:28;;;;;;;1.33;1.30;;;10.90;55.80;;;;;;5073252;28;20031;-81
2023/03/29 07:01:54;;;;;;;1.58;1.48;;;10.90;55.80;;;;;;5073647;28;20021;-81
2023/03/29 07:04:22;;;;;;;1.35;1.35;;;10.90;55.70;;;;;;5073817;28;20021;-82
2023/03/29 07:06:57;;;;;;;1.55;1.45;;;10.90;55.70;;;;;;5055644;28;20439;-81
2023/03/29 07:09:25;;;;;;;1.50;1.40;;;10.90;55.70;;;;;;5073469;28;20070;-82
2023/03/29 07:11:50;;;;;;;1.40;1.30;;;11.00;55.70;;;;;;5073653;28;20040;-82
2023/03/29 07:14:16;;;;;;;1.60;1.50;;;11.00;55.70;;;;;;5073521;28;20033;-82
2023/03/29 07:16:45;;;;;;;1.20;1.20;;;11.00;55.60;;;;;;5073537;28;20107;-82
2023/03/29 07:19:11;;;;;;;1.30;1.30;;;11.00;55.60;;;;;;5073369;28;20458;-82
2023/03/29 07:21:37;;;;;;;1.20;1.20;;;11.00;55.60;;;;;;5073653;28;20073;-81
2023/03/29 07:24:03;;;;;;;1.30;1.30;;;11.10;55.50;;;;;;5073469;28;20029;-80
2023/03/29 07:26:29;;;;;;;1.20;1.20;;;11.10;55.50;;;;;;5055557;28;20028;-81
2023/03/29 07:28:55;;;;;;;1.30;1.30;;;11.10;55.40;;;;;;5073821;28;20020;-82
2023/03/29 07:31:20;;;;;;;1.10;1.10;;;11.10;55.40;;;;;;5073819;28;20366;-81
2023/03/29 07:33:51;;;;;;;1.45;1.30;;;11.10;55.30;;;;;;5073271;28;20047;-81
2023/03/29 07:36:16;;;;;;;1.50;1.40;;;11.10;55.30;;;;;;5073720;28;20053;-82
2023/03/29 07:38:42;;;;;;;1.35;1.25;;;11.10;55.30;;;;;;5072989;28;20039;-81
2023/03/29 07:41:08;;;;;;;1.20;1.20;;;11.20;55.30;;;;;;5073438;28;20031;-81
2023/03/29 07:43:34;;;;;;;1.30;1.30;;;11.20;55.30;;;;;;5073261;28;20032;-81
2023/03/29 07:46:01;;;;;;;1.42;1.42;;;11.20;55.20;;;;;;5073370;28;20031;-81
2023/03/29 07:48:27;;;;;;;1.27;1.27;;;11.20;55.10;;;;;;5073107;28;20060;-82
2023/03/29 07:50:52;;;;;;;1.40;1.30;;;11.20;55.10;;;;;;5073179;28;20033;-81
2023/03/29 07:53:18;;;;;;;1.52;1.42;;;11.30;55.10;;;;;;5076791;28;20082;-82
2023/03/29 07:55:48;;;;;;;1.35;1.27;;;11.30;55.10;;;;;;5059323;28;20016;-81
2023/03/29 07:58:14;;;;;;;1.27;1.27;;;11.30;55.00;;;;;;5076715;28;20028;-82
2023/03/29 08:00:40;;;;;;;1.48;1.38;;;11.30;55.00;;;;;;5077401;28;20060;-82
2023/03/29 08:03:08;;;;;;;1.42;1.40;;;11.30;55.00;;;;;;5076609;28;20542;-82
2023/03/29 08:05:33;;;;;;;1.08;1.08;;;11.30;54.90;;;;;;5076663;28;20035;-81
2023/03/29 08:07:59;;;;;;;1.20;1.20;;;11.30;54.90;;;;;;5077217;28;20020;-82
2023/03/29 08:10:26;;;;;;;1.10;1.10;;;11.30;54.90;;;;;;5076765;28;20020;-81
2023/03/29 08:12:52;;;;;;;1.55;1.45;;;11.30;54.90;;;;;;5059162;28;20028;-81
2023/03/29 08:15:18;;;;;;;1.55;1.45;;;11.40;55.50;;;;;;5077077;28;20020;-82
2023/03/29 08:17:44;;;;;;;1.38;1.30;;;11.40;54.90;;;;;;5076777;28;20035;-83
2023/03/29 08:20:15;;;;;;;1.20;1.20;;;11.40;54.90;;;;;;5076678;28;20028;-82
2023/03/29 08:22:41;;;;;;;1.27;1.27;;;11.40;54.80;;;;;;5076610;28;20036;-82
2023/03/29 08:25:08;;;;;;;1.38;1.38;;;11.40;54.80;;;;;;5076656;28;20036;-82
2023/03/29 08:27:34;;;;;;;1.50;1.40;;;11.40;54.70;;;;;;5076528;28;20024;-82
2023/03/29 08:29:59;;;;;;;1.25;1.25;;;11.40;54.70;;;;;;5076903;28;20085;-82
2023/03/29 08:32:25;;;;;;;1.50;1.40;;;11.40;54.70;;;;;;5076617;28;20402;-81
2023/03/29 08:34:51;;;;;;;1.63;1.52;;;11.40;54.60;;;;;;5058375;28;20371;-81
2023/03/29 08:37:17;;;;;;;1.38;1.38;;;11.40;54.60;;;;;;5076869;28;20467;-82
2023/03/29 08:39:42;;;;;;;1.40;1.40;;;11.40;54.50;;;;;;5076389;28;20028;-82
2023/03/29 08:42:32;;;;;;;1.20;1.20;;;11.50;54.60;;;;;;5076244;28;20032;-82
2023/03/29 08:45:19;;;;;;;1.10;1.10;;;11.50;54.40;;;;;;5076473;28;20035;-83
2023/03/29 08:47:53;;;;;;;1.20;1.20;;;11.50;54.40;;;;;;5058436;28;20544;-82
2023/03/29 08:50:21;;;;;;;1.20;1.20;;;11.50;54.40;;;;;;5058528;28;20111;-82
2023/03/29 08:53:01;;;;;;;1.27;1.20;;;11.50;54.40;;;;;;5076009;28;20044;-82
2023/03/29 08:55:37;;;;;;;1.40;1.35;;;11.50;54.30;;;;;;5076060;28;20031;-83
2023/03/29 08:58:10;;;;;;;1.40;1.40;;;11.50;54.30;;;;;;5076062;28;20029;-81
2023/03/29 09:00:45;;;;;;;1.58;1.48;;;11.50;54.30;;;;;;5076357;28;20055;-83
2023/03/29 09:03:34;;;;;;;;;;;11.50;54.20;;;;;;5074978;28;20463;-81
2023/03/29 09:06:06;;;;;;;1.20;1.20;;;11.50;53.80;;;;;;5067597;28;19926;-81
2023/03/29 09:08:41;;;;;;;1.20;1.20;;;11.50;54.20;;;;;;5058014;28;20029;-83
2023/03/29 09:11:22;;;;;;;1.20;1.20;;;11.50;54.20;;;;;;5076148;28;20029;-81
2023/03/29 09:14:21;;;;;;;1.33;1.30;;;11.50;54.10;;;;;;5075968;28;20462;-81
2023/03/29 09:16:49;;;;;;;1.20;1.20;;;11.50;54.10;;;;;;5075637;28;20112;-82
2023/03/29 09:19:46;;;;;;;1.35;1.35;;;11.50;54.20;;;;;;5075954;28;20033;-81
2023/03/29 09:22:43;;;;;;;1.20;1.20;;;11.50;54.10;;;;;;5075396;28;20099;-81
2023/03/29 09:25:23;;;;;;;1.45;1.38;;;11.50;53.90;;;;;;5075794;28;20024;-81
2023/03/29 09:28:18;;;;;;;1.17;1.17;;;11.50;54.10;;;;;;5057438;28;20033;-81
2023/03/29 09:30:57;;;;;;;1.55;1.55;;;11.50;54.00;;;;;;5075330;28;20082;-81
2023/03/29 09:33:42;;;;;;;1.27;1.20;;;11.50;54.10;;;;;;5075664;28;20094;-81
2023/03/29 09:36:30;;;;;;;1.38;1.27;;;11.50;54.10;;;;;;5075181;28;20060;-82
2023/03/29 09:38:56;;;;;;;1.55;1.45;;;11.50;54.10;;;;;;5056493;28;20116;-82
2023/03/29 09:41:34;;;;;;;1.35;1.35;;;11.40;54.10;;;;;;5075069;28;20044;-82
2023/03/29 09:44:06;;;;;;;1.50;1.40;;;11.40;54.10;;;;;;5073719;28;20041;-81
2023/03/29 09:46:39;;;;;;;1.20;1.20;;;11.50;54.10;;;;;;5074495;28;20028;-82
2023/03/29 09:49:09;;;;;;;1.25;1.25;;;11.40;54.10;;;;;;5075038;28;20028;-82
2023/03/29 09:51:37;;;;;;;1.40;1.40;;;11.50;54.10;;;;;;5074983;28;20536;-82
2023/03/29 09:54:03;;;;;;;1.20;1.20;;;11.40;54.10;;;;;;5056801;28;20028;-82
2023/03/29 09:56:29;;;;;;;1.50;1.40;;;11.50;54.10;;;;;;5056843;28;20120;-83
2023/03/29 09:58:55;;;;;;;1.52;1.42;;;11.50;54.10;;;;;;5057192;28;20020;-82
2023/03/29 10:01:20;;;;;;;1.35;1.35;;;11.50;54.00;;;;;;5074593;28;20017;-82
2023/03/29 10:03:52;;;;;;;1.27;1.27;;;11.50;54.00;;;;;;5074546;28;20041;-82
2023/03/29 10:06:20;;;;;;;1.48;1.40;;;11.50;54.00;;;;;;5057325;28;20421;-81
2023/03/29 10:08:50;;;;;;;1.40;1.30;;;11.50;53.90;;;;;;5074428;28;20020;-82
2023/03/29 10:11:46;;;;;;;1.30;1.20;;;11.50;53.90;;;;;;5074579;28;20032;-81
2023/03/29 10:14:27;;;;;;;1.35;1.35;;;11.50;53.70;;;;;;5054357;28;20044;-82
2023/03/29 10:16:57;;;;;;;1.35;1.30;;;11.50;53.90;;;;;;5074563;28;20025;-81
2023/03/29 10:19:31;;;;;;;1.20;1.20;;;11.50;53.80;;;;;;5074299;28;20020;-81
2023/03/29 10:21:58;;;;;;;;;;;11.50;53.80;;;;;;5056874;28;20107;-82
2023/03/29 10:24:26;;;;;;;1.23;1.23;;;11.50;53.40;;;;;;5074189;28;19912;-81
2023/03/29 10:26:58;;;;;;;1.42;1.38;;;11.50;53.80;;;;;;5056185;28;20032;-81
2023/03/29 10:29:26;;;;;;;1.40;1.30;;;11.50;53.70;;;;;;5073997;28;20025;-81
2023/03/29 10:31:53;;;;;;;1.50;1.40;;;11.50;53.70;;;;;;5073922;28;20123;-82
2023/03/29 10:34:24;;;;;;;1.30;1.30;;;11.50;53.70;;;;;;5074379;28;20035;-82
2023/03/29 10:36:59;;;;;;;1.15;1.15;;;11.60;53.80;;;;;;5055814;28;20052;-82
2023/03/29 10:39:28;;;;;;;1.10;1.10;;;11.60;53.70;;;;;;5073783;28;20455;-81
2023/03/29 10:41:54;;;;;;;1.25;1.25;;;11.60;53.70;;;;;;5055962;28;20074;-82
2023/03/29 10:44:33;;;;;;;1.15;1.15;;;11.60;53.70;;;;;;5056116;28;20123;-82
2023/03/29 10:47:16;;;;;;;1.30;1.30;;;11.70;53.60;;;;;;5056372;28;20028;-82
2023/03/29 10:49:45;;;;;;;1.13;1.13;;;11.70;53.50;;;;;;5055794;28;20031;-82
2023/03/29 10:52:13;;;;;;;1.10;1.10;;;11.70;53.50;;;;;;5055843;28;20031;-81
2023/03/29 10:54:39;;;;;;;1.10;1.10;;;11.70;53.50;;;;;;5055776;28;20119;-82
2023/03/29 10:57:09;;;;;;;1.25;1.25;;;11.80;53.50;;;;;;5073842;28;20103;-82
2023/03/29 11:00:03;;;;;;;1.30;1.20;;;11.80;53.40;;;;;;5073835;28;20048;-82
2023/03/29 11:02:44;;;;;;;1.60;1.50;;;11.80;53.30;;;;;;5073751;28;20523;-82
2023/03/29 11:05:16;;;;;;;1.20;1.20;;;11.80;53.40;;;;;;5056404;28;20074;-82
2023/03/29 11:08:08;;;;;;;1.27;1.27;;;11.80;53.30;;;;;;5073690;28;20066;-82
2023/03/29 11:11:02;;;;;;;1.20;1.20;;;11.80;53.20;;;;;;5056092;28;20032;-81
2023/03/29 11:13:52;;;;;;;1.30;1.30;;;11.90;53.30;;;;;;5072914;28;20087;-82
2023/03/29 11:16:38;;;;;;;1.58;1.48;;;11.90;53.20;;;;;;5073600;28;20463;-84
2023/03/29 11:19:22;;;;;;;1.40;1.30;;;11.90;53.10;;;;;;5073030;28;20067;-82
2023/03/29 11:22:08;;;;;;;1.23;1.23;;;11.90;53.10;;;;;;5073528;28;20028;-83
2023/03/29 11:24:49;;;;;;;1.30;1.30;;;11.80;53.10;;;;;;5073735;28;20386;-83
2023/03/29 11:27:34;;;;;;;1.38;1.38;;;11.80;53.10;;;;;;5076242;28;20033;-82
2023/03/29 11:30:09;;;;;;;1.20;1.20;;;11.80;53.20;;;;;;5077631;28;20028;-82
2023/03/29 11:32:35;;;;;;;1.30;1.30;;;11.80;53.10;;;;;;5078260;28;20028;-81
2023/03/29 11:35:26;;;;;;;1.30;1.30;;;11.80;53.20;;;;;;5077376;28;20111;-82
2023/03/29 11:38:14;;;;;;;1.42;1.33;;;11.80;53.00;;;;;;5077775;28;20028;-81
2023/03/29 11:40:53;;;;;;;1.10;1.10;;;11.70;53.10;;;;;;5076965;28;20059;-81
2023/03/29 11:43:22;;;;;;;1.40;1.30;;;11.70;53.10;;;;;;5077627;28;20033;-82
2023/03/29 11:46:29;;;;;;;1.13;1.13;;;11.70;53.20;;;;;;5077312;28;20060;-82
2023/03/29 11:49:03;;;;;;;1.20;1.20;;;11.70;53.00;;;;;;5059350;28;20025;-82
2023/03/29 11:51:44;;;;;;;1.25;1.25;;;11.70;53.20;;;;;;5077538;28;20029;-81
2023/03/29 11:54:48;;;;;;;1.42;1.33;;;11.70;53.10;;;;;;5059262;28;20028;-81
2023/03/29 11:57:32;;;;;;;1.20;1.20;;;11.70;53.10;;;;;;4971906;28;20035;-81
2023/03/29 12:00:11;;;;;;;1.50;1.40;;;11.70;53.10;;;;;;5076793;28;20059;-82
2023/03/29 12:02:38;;;;;;;1.33;1.27;;;11.70;53.10;;;;;;5076928;28;20082;-80
2023/03/29 12:05:26;;;;;;;1.20;1.20;;;11.70;53.20;;;;;;5076615;28;20040;-80
2023/03/29 12:08:31;;;;;;;1.20;1.20;;;11.60;53.10;;;;;;5077212;28;20024;-81
2023/03/29 12:11:08;;;;;;;;;;;11.60;52.90;;;;;;4976694;28;20441;-81
2023/03/29 12:13:41;;;;;;;1.52;1.42;;;11.60;52.80;;;;;;5067061;28;20255;-80
2023/03/29 12:16:25;;;;;;;1.40;1.40;;;11.60;53.20;;;;;;5076858;28;20513;-81
2023/03/29 12:18:55;;;;;;;1.30;1.30;;;11.60;53.10;;;;;;5076467;28;20032;-83
2023/03/29 12:21:23;;;;;;;1.40;1.40;;;11.60;53.20;;;;;;5076682;28;20039;-82
2023/03/29 12:23:50;;;;;;;1.30;1.30;;;11.60;53.10;;;;;;5076240;28;20440;-81
2023/03/29 12:26:19;;;;;;;1.20;1.20;;;11.70;53.20;;;;;;5076458;28;20056;-82
2023/03/29 12:29:09;;;;;;;1.50;1.40;;;11.70;53.20;;;;;;5076525;28;20056;-80
2023/03/29 12:31:38;;;;;;;1.30;1.30;;;11.70;53.00;;;;;;5076163;28;20035;-81
2023/03/29 12:34:37;;;;;;;1.20;1.20;;;11.70;53.10;;;;;;5076015;28;20040;-82
2023/03/29 12:37:34;;;;;;;1.48;1.40;;;11.70;53.00;;;;;;5075949;28;20045;-82
2023/03/29 12:40:16;;;;;;;1.20;1.20;;;11.60;52.90;;;;;;5076320;28;20111;-82
2023/03/29 12:43:07;;;;;;;1.25;1.25;;;11.60;53.00;;;;;;5058731;28;20414;-80
2023/03/29 12:45:47;;;;;;;1.70;1.60;;;11.60;53.10;;;;;;5075861;28;20067;-80
2023/03/29 12:48:28;;;;;;;1.60;1.50;;;11.60;53.10;;;;;;5058838;28;20032;-78
2023/03/29 12:51:01;;;;;;;1.42;1.40;;;11.50;53.00;;;;;;5075813;28;20027;-77
2023/03/29 12:53:51;;;;;;;1.30;1.30;;;11.50;53.10;;;;;;5072816;28;20032;-78
2023/03/29 12:56:20;;;;;;;1.30;1.30;;;11.50;53.20;;;;;;5078112;28;20025;-78
2023/03/29 12:58:54;;;;;;;1.45;1.38;;;11.50;53.20;;;;;;5095876;28;20023;-79
2023/03/29 13:01:28;;;;;;;1.27;1.27;;;11.40;53.20;;;;;;5095910;28;20028;-79
2023/03/29 13:04:17;;;;;;;1.20;1.20;;;11.40;53.20;;;;;;5095931;28;20288;-80
2023/03/29 13:06:45;;;;;;;1.40;1.40;;;11.40;53.10;;;;;;5077816;28;20063;-80
2023/03/29 13:09:46;;;;;;;1.15;1.15;;;11.40;53.30;;;;;;5095773;28;20051;-79
2023/03/29 13:12:15;;;;;;;1.60;1.50;;;11.40;53.20;;;;;;5074947;28;20556;-76